createdAt,value
2023-05-05T00:01:24.298Z,135.40
2023-05-05T00:03:50.851Z,129.73
2023-05-05T00:06:17.400Z,132.87
2023-05-05T00:08:43.879Z,135.77
2023-05-05T00:11:10.351Z,136.33
2023-05-05T00:13:36.846Z,130.60
2023-05-05T00:16:03.965Z,131.93
2023-05-05T00:18:30.422Z,135.63
2023-05-05T00:20:57.035Z,137.10
2023-05-05T00:23:23.478Z,135.73
2023-05-05T00:25:49.971Z,131.83
2023-05-05T00:28:16.445Z,137.17
2023-05-05T00:30:42.936Z,141.07
2023-05-05T00:33:09.581Z,135.73
2023-05-05T00:35:36.071Z,140.13
2023-05-05T00:38:02.995Z,138.60
2023-05-05T00:40:29.573Z,136.20
2023-05-05T00:42:55.991Z,140.20
2023-05-05T00:45:22.661Z,139.30
2023-05-05T00:47:51.566Z,140.47
2023-05-05T00:50:29.062Z,135.13
2023-05-05T00:53:06.740Z,141.20
2023-05-05T00:55:34.505Z,134.93
2023-05-05T00:58:03.035Z,135.47
2023-05-05T01:00:30.913Z,146.30
2023-05-05T01:02:57.514Z,141.97
2023-05-05T01:05:24.789Z,145.73
2023-05-05T01:08:19.492Z,141.93
2023-05-05T01:10:50.285Z,144.67
2023-05-05T01:13:26.623Z,140.03
2023-05-05T01:16:01.611Z,144.93
2023-05-05T01:18:40.580Z,140.10
2023-05-05T01:21:27.064Z,146.10
2023-05-05T01:24:07.942Z,138.17
2023-05-05T01:27:12.049Z,148.93
2023-05-05T01:30:05.688Z,141.93
2023-05-05T01:32:35.762Z,144.53
2023-05-05T01:35:06.329Z,148.03
2023-05-05T01:37:59.107Z,150.40
2023-05-05T01:40:28.289Z,150.47
2023-05-05T01:42:55.575Z,148.47
2023-05-05T01:45:25.365Z,159.90
2023-05-05T01:47:52.789Z,157.57
2023-05-05T01:50:19.596Z,158.90
2023-05-05T01:52:46.743Z,162.33
2023-05-05T01:55:14.897Z,156.90
2023-05-05T01:57:42.565Z,162.20
2023-05-05T02:00:09.870Z,168.07
2023-05-05T02:02:38.922Z,158.47
2023-05-05T02:05:06.677Z,157.47
2023-05-05T02:07:33.874Z,163.93
2023-05-05T02:10:02.778Z,159.77
2023-05-05T02:12:30.312Z,166.77
2023-05-05T02:14:59.249Z,161.97
2023-05-05T02:17:26.403Z,167.57
2023-05-05T02:19:53.233Z,164.57
2023-05-05T02:22:19.779Z,177.80
2023-05-05T02:24:46.340Z,167.40
2023-05-05T02:27:16.463Z,171.40
2023-05-05T02:29:48.016Z,180.37
2023-05-05T02:32:18.638Z,176.80
2023-05-05T02:34:46.455Z,183.97
2023-05-05T02:37:16.030Z,186.70
2023-05-05T02:39:58.658Z,175.53
2023-05-05T02:42:29.035Z,175.73
2023-05-05T02:44:58.829Z,167.77
2023-05-05T02:47:35.667Z,175.13
2023-05-05T02:50:03.411Z,172.23
2023-05-05T02:52:30.070Z,182.77
2023-05-05T02:54:56.571Z,181.00
2023-05-05T02:57:31.153Z,170.17
2023-05-05T03:00:05.985Z,174.77
2023-05-05T03:02:55.888Z,178.10
2023-05-05T03:05:23.952Z,166.37
2023-05-05T03:08:03.403Z,175.00
2023-05-05T03:10:31.459Z,176.00
2023-05-05T03:13:00.125Z,175.20
2023-05-05T03:15:36.693Z,168.87
2023-05-05T03:18:04.076Z,157.43
2023-05-05T03:20:30.720Z,163.43
2023-05-05T03:22:57.263Z,161.53
2023-05-05T03:25:41.443Z,167.13
2023-05-05T03:28:07.934Z,158.97
2023-05-05T03:30:34.404Z,155.63
2023-05-05T03:33:01.093Z,157.80
2023-05-05T03:35:27.971Z,149.67
2023-05-05T03:37:55.687Z,148.50
2023-05-05T03:40:36.380Z,144.03
2023-05-05T03:43:09.872Z,141.27
2023-05-05T03:45:36.339Z,139.60
2023-05-05T03:48:03.195Z,135.87
2023-05-05T03:50:29.668Z,140.83
2023-05-05T03:52:56.252Z,136.00
2023-05-05T03:55:22.792Z,134.27
2023-05-05T03:57:49.254Z,133.57
2023-05-05T04:00:16.059Z,125.03
2023-05-05T04:02:43.671Z,127.17
2023-05-05T04:05:10.297Z,124.03
2023-05-05T04:07:36.754Z,123.20
2023-05-05T04:10:03.313Z,120.17
2023-05-05T04:12:29.885Z,120.67
2023-05-05T04:14:56.367Z,117.70
2023-05-05T04:17:22.823Z,116.83
2023-05-05T04:19:49.392Z,114.70
2023-05-05T04:22:15.907Z,119.17
2023-05-05T04:24:42.374Z,109.03
2023-05-05T04:27:08.827Z,105.03
2023-05-05T04:29:35.313Z,102.63
2023-05-05T04:32:01.760Z,100.23
2023-05-05T04:34:28.283Z,99.53
2023-05-05T04:36:54.745Z,97.30
2023-05-05T04:39:21.595Z,97.57
2023-05-05T04:41:48.054Z,102.20
2023-05-05T04:44:14.542Z,93.67
2023-05-05T04:46:41.479Z,90.97
2023-05-05T04:49:09.190Z,87.57
2023-05-05T04:51:35.661Z,81.40
2023-05-05T04:54:02.176Z,86.20
2023-05-05T04:56:32.010Z,81.17
2023-05-05T04:58:58.615Z,83.53
2023-05-05T05:01:25.263Z,91.57
2023-05-05T05:03:51.780Z,81.20
2023-05-05T05:06:18.335Z,72.60
2023-05-05T05:08:44.829Z,77.10
2023-05-05T05:11:11.280Z,72.87
2023-05-05T05:13:37.795Z,76.70
2023-05-05T05:16:04.419Z,66.20
2023-05-05T05:18:30.894Z,66.70
2023-05-05T05:20:57.314Z,65.53
2023-05-05T05:23:23.852Z,61.90
2023-05-05T05:25:50.753Z,55.57
2023-05-05T05:28:17.210Z,55.23
2023-05-05T05:30:43.644Z,53.53
2023-05-05T05:33:10.790Z,53.00
2023-05-05T05:35:37.433Z,53.37
2023-05-05T05:38:04.006Z,51.27
2023-05-05T05:40:31.517Z,49.77
2023-05-05T05:42:58.078Z,51.10
2023-05-05T05:45:24.547Z,48.90
2023-05-05T05:47:51.111Z,48.30
2023-05-05T05:50:17.719Z,46.17
2023-05-05T05:52:44.187Z,46.73
2023-05-05T05:55:10.694Z,45.80
2023-05-05T05:57:37.144Z,44.83
2023-05-05T06:00:04.013Z,41.93
2023-05-05T06:02:30.662Z,39.53
2023-05-05T06:04:57.180Z,39.60
2023-05-05T06:07:23.677Z,35.83
2023-05-05T06:09:50.613Z,35.67
2023-05-05T06:12:17.118Z,33.83
2023-05-05T06:14:43.729Z,54.37
2023-05-05T06:17:10.270Z,35.20
2023-05-05T06:19:39.760Z,32.20
2023-05-05T06:22:06.362Z,37.30
2023-05-05T06:24:32.931Z,32.00
2023-05-05T06:26:59.431Z,32.73
2023-05-05T06:29:26.299Z,31.77
2023-05-05T06:31:52.830Z,31.97
2023-05-05T06:34:19.399Z,30.90
2023-05-05T06:36:46.041Z,29.80
2023-05-05T06:39:15.298Z,31.07
2023-05-05T06:41:42.471Z,45.27
2023-05-05T06:44:08.950Z,28.73
2023-05-05T06:46:35.574Z,28.00
2023-05-05T06:49:02.106Z,32.60
2023-05-05T06:51:28.553Z,28.20
2023-05-05T06:53:55.019Z,30.03
2023-05-05T06:56:21.594Z,70.60
2023-05-05T06:58:48.147Z,27.67
2023-05-05T07:01:14.663Z,31.53
2023-05-05T07:03:41.209Z,31.03
2023-05-05T07:06:07.838Z,33.27
2023-05-05T07:08:34.347Z,26.80
2023-05-05T07:11:01.201Z,29.53
2023-05-05T07:13:27.747Z,31.10
2023-05-05T07:15:54.273Z,27.83
2023-05-05T07:18:21.146Z,29.67
2023-05-05T07:20:49.154Z,28.27
2023-05-05T07:23:15.607Z,41.23
2023-05-05T07:25:42.198Z,29.23
2023-05-05T07:28:08.741Z,33.03
2023-05-05T07:30:35.259Z,30.83
2023-05-05T07:33:01.813Z,25.97
2023-05-05T07:35:28.541Z,40.77
2023-05-05T07:37:54.985Z,30.60
2023-05-05T07:40:21.668Z,29.03
2023-05-05T07:42:48.208Z,28.90
2023-05-05T07:45:14.665Z,29.17
2023-05-05T07:47:41.191Z,36.27
2023-05-05T07:50:08.612Z,31.83
2023-05-05T07:52:46.820Z,26.73
2023-05-05T07:55:18.163Z,30.17
2023-05-05T07:57:44.628Z,33.27
2023-05-05T08:00:13.288Z,33.20
2023-05-05T08:02:40.325Z,30.87
2023-05-05T08:05:07.520Z,31.60
2023-05-05T08:07:34.320Z,42.17
2023-05-05T08:10:00.828Z,34.43
2023-05-05T08:12:27.299Z,33.20
2023-05-05T08:14:53.782Z,38.00
2023-05-05T08:17:20.336Z,37.30
2023-05-05T08:19:46.881Z,39.37
2023-05-05T08:22:13.398Z,29.97
2023-05-05T08:24:39.830Z,29.63
2023-05-05T08:27:06.356Z,37.70
2023-05-05T08:29:32.814Z,35.00
2023-05-05T08:31:59.303Z,35.10
2023-05-05T08:34:25.841Z,30.30
2023-05-05T08:36:52.288Z,45.47
2023-05-05T08:39:18.771Z,29.10
2023-05-05T08:41:45.271Z,34.33
2023-05-05T08:44:11.965Z,28.83
2023-05-05T08:46:39.170Z,34.53
2023-05-05T08:49:06.195Z,37.97
2023-05-05T08:51:40.415Z,35.10
2023-05-05T08:54:11.615Z,31.73
2023-05-05T08:56:41.878Z,39.53
2023-05-05T08:59:09.142Z,30.33
2023-05-05T09:01:36.305Z,28.57
2023-05-05T09:04:04.390Z,31.87
2023-05-05T09:06:33.771Z,27.27
2023-05-05T09:09:00.987Z,26.87
2023-05-05T09:11:28.105Z,33.30
2023-05-05T09:13:56.125Z,35.70
2023-05-05T09:16:23.076Z,26.97
2023-05-05T09:18:49.650Z,26.67
2023-05-05T09:21:25.109Z,27.07
2023-05-05T09:24:08.173Z,30.60
2023-05-05T09:26:59.186Z,25.37
2023-05-05T09:29:26.578Z,39.50
2023-05-05T09:32:08.984Z,22.63
2023-05-05T09:34:36.206Z,26.63
2023-05-05T09:37:03.435Z,34.67
2023-05-05T09:39:30.043Z,26.20
2023-05-05T09:41:56.557Z,37.23
2023-05-05T09:44:36.729Z,49.37
2023-05-05T09:47:26.112Z,41.17
2023-05-05T09:50:01.901Z,27.83
2023-05-05T09:52:32.083Z,26.47
2023-05-05T09:54:58.576Z,27.83
2023-05-05T09:57:27.294Z,38.00
2023-05-05T09:59:58.927Z,28.63
2023-05-05T10:02:33.441Z,32.23
2023-05-05T10:05:06.665Z,27.10
2023-05-05T10:07:33.242Z,31.77
2023-05-05T10:09:59.689Z,30.43
2023-05-05T10:12:26.976Z,47.50
2023-05-05T10:14:55.892Z,38.87
2023-05-05T10:17:23.350Z,49.33
2023-05-05T10:19:52.699Z,28.83
2023-05-05T10:22:23.442Z,51.70
2023-05-05T10:24:57.912Z,24.27
2023-05-05T10:27:26.079Z,31.17
2023-05-05T10:29:57.808Z,25.23
2023-05-05T10:35:03.249Z,28.50
2023-05-05T10:37:30.928Z,27.17
2023-05-05T10:39:57.827Z,31.93
2023-05-05T10:42:24.371Z,27.60
2023-05-05T10:44:51.410Z,46.40
2023-05-05T10:47:19.300Z,30.67
2023-05-05T10:49:52.943Z,36.50
2023-05-05T10:52:37.319Z,30.47
2023-05-05T10:55:14.357Z,29.17
2023-05-05T10:57:43.092Z,34.07
2023-05-05T11:00:10.920Z,35.80
2023-05-05T11:02:37.550Z,40.30
2023-05-05T11:05:18.086Z,34.20
2023-05-05T11:07:46.491Z,35.77
2023-05-05T11:10:15.032Z,35.23
2023-05-05T11:12:57.874Z,33.40
2023-05-05T11:15:27.930Z,48.13
2023-05-05T11:17:58.499Z,32.80
2023-05-05T11:20:39.436Z,51.43
2023-05-05T11:23:05.928Z,33.97
2023-05-05T11:25:39.018Z,37.37
2023-05-05T11:28:16.338Z,28.90
2023-05-05T11:30:55.184Z,50.77
2023-05-05T11:33:32.852Z,39.60
2023-05-05T11:36:12.283Z,36.80
2023-05-05T11:39:11.869Z,38.77
2023-05-05T11:42:08.022Z,30.73
2023-05-05T11:44:36.221Z,38.73
2023-05-05T11:47:05.893Z,32.00
2023-05-05T11:49:39.389Z,42.43
2023-05-05T11:52:10.463Z,35.13
2023-05-05T11:54:40.469Z,32.57
2023-05-05T11:57:10.302Z,36.50
2023-05-05T11:59:50.230Z,58.43
2023-05-05T12:02:17.898Z,38.77
2023-05-05T12:04:44.534Z,48.63
2023-05-05T12:07:21.822Z,80.83
2023-05-05T12:09:49.083Z,38.23
2023-05-05T12:12:16.508Z,40.80
2023-05-05T12:14:53.253Z,31.00
2023-05-05T12:17:20.809Z,31.87
2023-05-05T12:19:50.346Z,29.93
2023-05-05T12:22:26.945Z,29.97
2023-05-05T12:24:57.732Z,43.57
2023-05-05T12:27:25.212Z,38.17
2023-05-05T12:29:51.927Z,33.00
2023-05-05T12:32:26.079Z,45.03
2023-05-05T12:34:54.411Z,40.03
2023-05-05T12:37:22.070Z,28.40
2023-05-05T12:39:52.283Z,36.97
2023-05-05T12:42:19.204Z,38.87
2023-05-05T12:44:46.717Z,39.40
2023-05-05T12:47:14.162Z,32.40
2023-05-05T12:49:48.670Z,44.30
2023-05-05T12:52:16.279Z,27.57
2023-05-05T12:54:54.835Z,45.60
2023-05-05T12:57:22.374Z,35.77
2023-05-05T12:59:49.414Z,28.97
2023-05-05T13:02:16.515Z,25.67
2023-05-05T13:04:53.534Z,32.43
2023-05-05T13:07:21.720Z,65.73
2023-05-05T13:09:50.963Z,37.60
2023-05-05T13:12:17.976Z,38.40
2023-05-05T13:14:44.734Z,31.17
2023-05-05T13:17:11.839Z,47.67
2023-05-05T13:19:42.785Z,26.50
2023-05-05T13:22:13.178Z,26.27
2023-05-05T13:24:51.003Z,26.90
2023-05-05T13:27:18.601Z,28.57
2023-05-05T13:29:45.127Z,37.63
2023-05-05T13:32:11.713Z,29.57
2023-05-05T13:34:39.256Z,29.67
2023-05-05T13:37:06.129Z,31.23
2023-05-05T13:39:32.761Z,55.30
2023-05-05T13:41:59.274Z,38.53
2023-05-05T13:44:25.749Z,34.90
2023-05-05T13:46:52.388Z,33.00
2023-05-05T13:49:20.028Z,35.47
2023-05-05T13:51:47.182Z,54.97
2023-05-05T13:54:13.962Z,42.40
2023-05-05T13:56:40.474Z,33.03
2023-05-05T13:59:06.964Z,35.50
2023-05-05T14:01:33.487Z,36.23
2023-05-05T14:04:01.449Z,44.83
2023-05-05T14:06:29.393Z,32.00
2023-05-05T14:08:55.940Z,28.73
2023-05-05T14:11:22.926Z,50.90
2023-05-05T14:13:49.746Z,35.30
2023-05-05T14:16:16.618Z,53.50
2023-05-05T14:18:43.188Z,76.13
2023-05-05T14:21:09.785Z,35.97
2023-05-05T14:23:36.307Z,29.37
2023-05-05T14:26:02.870Z,30.50
2023-05-05T14:28:29.325Z,29.47
2023-05-05T14:30:56.408Z,28.57
2023-05-05T14:33:23.014Z,28.73
2023-05-05T14:35:51.671Z,36.50
2023-05-05T14:38:25.356Z,43.33
2023-05-05T14:40:51.908Z,28.77
2023-05-05T14:43:18.412Z,76.67
2023-05-05T14:45:44.956Z,31.33
2023-05-05T14:48:11.541Z,31.70
2023-05-05T14:50:39.925Z,36.07
2023-05-05T14:53:06.422Z,33.53
2023-05-05T14:55:33.043Z,28.60
2023-05-05T14:57:59.549Z,40.87
2023-05-05T15:00:26.900Z,26.73
2023-05-05T15:02:53.623Z,32.77
2023-05-05T15:05:20.274Z,27.57
2023-05-05T15:07:46.781Z,28.47
2023-05-05T15:10:13.218Z,33.63
2023-05-05T15:12:39.711Z,28.67
2023-05-05T15:15:08.667Z,28.97
2023-05-05T15:17:37.471Z,25.80
2023-05-05T15:20:06.213Z,27.77
2023-05-05T15:22:43.196Z,56.20
2023-05-05T15:25:12.481Z,27.30
2023-05-05T15:27:44.060Z,26.00
2023-05-05T15:30:21.808Z,25.80
2023-05-05T15:32:48.337Z,25.37
2023-05-05T15:35:14.831Z,27.03
2023-05-05T15:37:42.873Z,53.23
2023-05-05T15:40:09.886Z,25.97
2023-05-05T15:42:36.579Z,27.43
2023-05-05T15:45:03.449Z,26.33
2023-05-05T15:47:29.924Z,24.53
2023-05-05T15:49:56.574Z,29.10
2023-05-05T15:52:23.038Z,26.03
2023-05-05T15:54:49.543Z,23.07
2023-05-05T15:57:16.459Z,25.60
2023-05-05T15:59:43.012Z,27.90
2023-05-05T16:02:09.482Z,28.00
2023-05-05T16:04:35.951Z,36.97
2023-05-05T16:07:03.383Z,28.27
2023-05-05T16:09:29.902Z,36.90
2023-05-05T16:11:57.028Z,29.13
2023-05-05T16:14:24.102Z,27.10
2023-05-05T16:16:50.693Z,23.73
2023-05-05T16:19:18.134Z,28.83
2023-05-05T16:21:44.874Z,26.57
2023-05-05T16:24:16.030Z,26.20
2023-05-05T16:26:43.554Z,25.10
2023-05-05T16:29:10.532Z,24.47
2023-05-05T16:31:37.084Z,26.50
2023-05-05T16:34:03.872Z,36.07
2023-05-05T16:36:30.357Z,25.87
2023-05-05T16:38:56.855Z,25.07
2023-05-05T16:41:23.802Z,26.70
2023-05-05T16:43:50.433Z,26.47
2023-05-05T16:46:17.022Z,27.63
2023-05-05T16:48:43.649Z,27.77
2023-05-05T16:51:10.140Z,25.77
2023-05-05T16:53:36.638Z,32.30
2023-05-05T16:56:03.324Z,26.17
2023-05-05T16:58:29.810Z,27.20
2023-05-05T17:00:56.258Z,24.63
2023-05-05T17:03:22.791Z,27.37
2023-05-05T17:05:50.470Z,29.40
2023-05-05T17:08:17.254Z,27.47
2023-05-05T17:10:45.328Z,25.83
2023-05-05T17:13:12.957Z,24.57
2023-05-05T17:15:39.596Z,27.23
2023-05-05T17:18:06.804Z,25.10
2023-05-05T17:20:34.413Z,26.37
2023-05-05T17:23:02.204Z,26.27
2023-05-05T17:25:28.812Z,26.37
2023-05-05T17:27:56.182Z,26.27
2023-05-05T17:30:23.410Z,26.33
2023-05-05T17:32:50.040Z,32.23
2023-05-05T17:35:16.650Z,29.03
2023-05-05T17:37:43.197Z,33.13
2023-05-05T17:40:09.904Z,68.33
2023-05-05T17:42:36.432Z,37.57
2023-05-05T17:45:03.362Z,48.43
2023-05-05T17:47:29.999Z,38.43
2023-05-05T17:49:56.914Z,45.33
2023-05-05T17:52:23.850Z,41.00
2023-05-05T17:54:50.702Z,42.00
2023-05-05T17:57:18.373Z,44.40
2023-05-05T17:59:45.078Z,49.67
2023-05-05T18:02:11.560Z,48.03
2023-05-05T18:04:38.030Z,50.67
2023-05-05T18:07:04.880Z,42.90
2023-05-05T18:09:31.350Z,44.73
2023-05-05T18:11:57.822Z,42.43
2023-05-05T18:14:24.598Z,40.20
2023-05-05T18:16:52.403Z,44.17
2023-05-05T18:19:23.127Z,42.97
2023-05-05T18:21:54.464Z,36.57
2023-05-05T18:24:20.969Z,34.40
2023-05-05T18:26:50.196Z,33.83
2023-05-05T18:29:17.881Z,33.87
2023-05-05T18:31:46.094Z,30.43
2023-05-05T18:34:12.594Z,27.53
2023-05-05T18:36:39.267Z,24.67
2023-05-05T18:39:05.772Z,22.53
2023-05-05T18:41:35.711Z,21.17
2023-05-05T18:44:04.611Z,21.93
2023-05-05T18:46:31.266Z,20.67
2023-05-05T18:48:57.823Z,15.70
2023-05-05T18:51:24.954Z,15.27
2023-05-05T18:53:51.424Z,15.03
2023-05-05T18:56:18.569Z,18.00
2023-05-05T18:58:45.044Z,26.77
2023-05-05T19:01:11.524Z,26.60
2023-05-05T19:03:38.124Z,39.53
2023-05-05T19:06:07.850Z,41.30
2023-05-05T19:08:34.462Z,50.87
2023-05-05T19:11:00.974Z,57.77
2023-05-05T19:13:28.171Z,70.00
2023-05-05T19:15:57.071Z,95.27
2023-05-05T19:18:24.216Z,106.97
2023-05-05T19:20:50.734Z,122.37
2023-05-05T19:23:17.193Z,127.50
2023-05-05T19:25:43.896Z,137.50
2023-05-05T19:28:13.670Z,156.53
2023-05-05T19:30:40.117Z,158.67
2023-05-05T19:33:06.703Z,174.00
2023-05-05T19:35:33.220Z,181.07
2023-05-05T19:37:59.785Z,214.60
2023-05-05T19:40:26.252Z,223.23
2023-05-05T19:42:52.811Z,214.37
2023-05-05T19:45:19.345Z,255.67
2023-05-05T19:47:46.235Z,258.83
2023-05-05T19:50:12.841Z,257.97
2023-05-05T19:52:41.385Z,261.53
2023-05-05T19:55:10.351Z,264.27
2023-05-05T19:57:36.937Z,285.13
2023-05-05T20:00:03.761Z,286.93
2023-05-05T20:02:30.525Z,295.67
2023-05-05T20:04:57.984Z,284.43
2023-05-05T20:07:24.470Z,291.03
2023-05-05T20:09:50.942Z,272.60
2023-05-05T20:12:19.532Z,281.77
2023-05-05T20:14:46.074Z,252.27
2023-05-05T20:17:38.952Z,262.03
2023-05-05T20:20:06.153Z,210.13
2023-05-05T20:22:32.731Z,204.80
2023-05-05T20:24:59.256Z,203.87
2023-05-05T20:27:26.726Z,209.87
2023-05-05T20:29:55.094Z,179.43
2023-05-05T20:32:21.594Z,171.00
2023-05-05T20:34:48.199Z,186.67
2023-05-05T20:37:14.721Z,164.30
2023-05-05T20:39:42.312Z,146.73
2023-05-05T20:42:08.745Z,141.50
2023-05-05T20:45:00.860Z,152.10
2023-05-05T20:47:27.345Z,135.07
2023-05-05T20:49:54.279Z,142.40
2023-05-05T20:52:20.852Z,113.47
2023-05-05T20:54:47.337Z,124.80
2023-05-05T20:57:13.797Z,145.73
2023-05-05T20:59:40.266Z,168.07
2023-05-05T21:02:07.420Z,171.17
2023-05-05T21:04:33.954Z,160.87
2023-05-05T21:07:00.594Z,165.70
2023-05-05T21:09:52.311Z,132.70
2023-05-05T21:12:21.785Z,125.10
2023-05-05T21:14:48.233Z,115.17
2023-05-05T21:17:14.678Z,98.70
2023-05-05T21:19:41.242Z,86.13
2023-05-05T21:22:09.672Z,83.00
2023-05-05T21:24:38.266Z,80.13
2023-05-05T21:27:04.797Z,58.40
2023-05-05T21:29:37.415Z,66.80
2023-05-05T21:32:05.127Z,59.73
2023-05-05T21:34:31.622Z,49.53
2023-05-05T21:36:58.155Z,42.10
2023-05-05T21:39:24.828Z,40.57
2023-05-05T21:41:51.612Z,36.60
2023-05-05T21:44:18.069Z,27.03
2023-05-05T21:46:44.690Z,27.83
2023-05-05T21:49:15.606Z,19.03
2023-05-05T21:51:42.662Z,16.00
2023-05-05T21:54:09.255Z,14.47
2023-05-05T21:56:36.915Z,14.17
2023-05-05T21:59:04.745Z,13.27
2023-05-05T22:01:31.852Z,13.30
2023-05-05T22:03:58.761Z,13.93
2023-05-05T22:06:25.358Z,16.10
2023-05-05T22:08:51.813Z,16.10
2023-05-05T22:11:18.807Z,23.00
2023-05-05T22:13:46.358Z,33.03
2023-05-05T22:16:12.905Z,33.63
2023-05-05T22:18:39.403Z,44.10
2023-05-05T22:21:06.133Z,53.07
2023-05-05T22:23:32.653Z,64.23
2023-05-05T22:25:59.177Z,89.97
2023-05-05T22:28:27.017Z,101.80
2023-05-05T22:30:54.024Z,122.90
2023-05-05T22:33:20.509Z,133.67
2023-05-05T22:35:47.060Z,137.97
2023-05-05T22:38:13.606Z,159.27
2023-05-05T22:40:40.195Z,165.03
2023-05-05T22:43:06.737Z,195.30
2023-05-05T22:45:33.286Z,212.90
2023-05-05T22:47:59.850Z,221.53
2023-05-05T22:50:26.354Z,229.47
2023-05-05T22:52:52.830Z,247.37
2023-05-05T22:55:20.308Z,249.50
2023-05-05T22:57:47.383Z,256.27
2023-05-05T23:00:14.604Z,260.40
2023-05-05T23:02:41.595Z,274.93
2023-05-05T23:05:08.681Z,279.63
2023-05-05T23:07:35.402Z,275.43
2023-05-05T23:10:01.918Z,285.53
2023-05-05T23:12:28.538Z,280.07
2023-05-05T23:14:55.038Z,283.07
2023-05-05T23:17:21.523Z,288.93
2023-05-05T23:19:48.501Z,283.97
2023-05-05T23:22:15.085Z,276.87
2023-05-05T23:24:41.729Z,277.03
2023-05-05T23:27:08.216Z,273.00
2023-05-05T23:29:37.671Z,266.33
2023-05-05T23:32:04.884Z,266.50
2023-05-05T23:34:41.305Z,260.43
2023-05-05T23:37:08.592Z,245.33
2023-05-05T23:39:35.247Z,246.50
2023-05-05T23:42:01.814Z,245.83
2023-05-05T23:44:28.418Z,246.03
2023-05-05T23:46:54.951Z,239.10
2023-05-05T23:49:21.523Z,238.97
2023-05-05T23:51:48.029Z,226.13
2023-05-05T23:54:14.522Z,217.73
2023-05-05T23:56:41.178Z,215.03
2023-05-05T23:59:07.869Z,219.43
